| time (UTC) | temp C | wind direction | speed KPH | gust KPH | rain 1hr cm | rain 24hr cm | rain mn cm | humidity % | barometer mb |
| 20260504012547 | 18 | 295 | 3.2 | 6.4 | 0.00 | 0.00 | 0.00 | 30 | 1004.1 |
| 20260504012045 | 18 | 300 | 3.2 | 8.0 | 0.00 | 0.00 | 0.00 | 29 | 1004.1 |
| 20260504011542 | 18 | 300 | 3.2 | 8.0 | 0.00 | 0.00 | 0.00 | 29 | 1004.1 |
| 20260504011037 | 18 | 296 | 3.2 | 11.3 | 0.00 | 0.00 | 0.00 | 29 | 1004.1 |
| 20260504010533 | 18 | 301 | 4.8 | 12.9 | 0.00 | 0.00 | 0.00 | 28 | 1004.1 |
| 20260504010030 | 18 | 319 | 8.0 | 14.5 | 0.00 | 0.00 | 0.00 | 28 | 1004.1 |
| 20260504005526 | 19 | 321 | 11.3 | 17.7 | 0.00 | 0.00 | 0.00 | 28 | 1003.8 |
| 20260504005024 | 19 | 336 | 11.3 | 20.9 | 0.00 | 0.00 | 0.00 | 27 | 1003.8 |
| 20260504004522 | 19 | 320 | 12.9 | 20.9 | 0.00 | 0.00 | 0.00 | 27 | 1004.1 |
| 20260504004019 | 19 | 311 | 12.9 | 24.1 | 0.00 | 0.00 | 0.00 | 27 | 1003.8 |
| 20260504003515 | 20 | 327 | 12.9 | 24.1 | 0.00 | 0.00 | 0.00 | 26 | 1003.8 |
| 20260504003012 | 20 | 325 | 12.9 | 19.3 | 0.00 | 0.00 | 0.00 | 26 | 1003.8 |
| 20260504002508 | 20 | 294 | 11.3 | 22.5 | 0.00 | 0.00 | 0.00 | 26 | 1004.1 |
| 20260504002006 | 20 | 330 | 14.5 | 27.4 | 0.00 | 0.00 | 0.00 | 25 | 1003.8 |
| 20260504001503 | 20 | 299 | 16.1 | 27.4 | 0.00 | 0.00 | 0.00 | 26 | 1004.1 |
| 20260504000959 | 20 | 334 | 12.9 | 25.7 | 0.00 | 0.00 | 0.00 | 25 | 1004.1 |
| 20260504000457 | 20 | 290 | 12.9 | 24.1 | 0.00 | 0.00 | 0.00 | 25 | 1003.8 |
| 20260503235954 | 20 | 302 | 12.9 | 22.5 | 0.00 | 0.00 | 0.00 | 25 | 1003.8 |
| 20260503235452 | 20 | 287 | 12.9 | 25.7 | 0.00 | 0.00 | 0.00 | 24 | 1003.8 |
| 20260503234949 | 20 | 296 | 16.1 | 27.4 | 0.00 | 0.00 | 0.00 | 24 | 1003.8 |
| 20260503234446 | 20 | 278 | 19.3 | 27.4 | 0.00 | 0.00 | 0.00 | 23 | 1003.8 |
| 20260503233944 | 20 | 300 | 17.7 | 29.0 | 0.00 | 0.00 | 0.00 | 23 | 1003.8 |
| 20260503233440 | 20 | 273 | 16.1 | 29.0 | 0.00 | 0.00 | 0.00 | 23 | 1003.8 |
| 20260503232937 | 20 | 336 | 17.7 | 30.6 | 0.00 | 0.00 | 0.00 | 24 | 1003.8 |
| 20260503232434 | 20 | 281 | 19.3 | 32.2 | 0.00 | 0.00 | 0.00 | 25 | 1003.8 |
| 20260503231932 | 20 | 296 | 17.7 | 32.2 | 0.00 | 0.00 | 0.00 | 24 | 1003.8 |
| 20260503231429 | 21 | 280 | 16.1 | 30.6 | 0.00 | 0.00 | 0.00 | 24 | 1003.8 |
| 20260503230925 | 21 | 288 | 16.1 | 27.4 | 0.00 | 0.00 | 0.00 | 25 | 1003.8 |
| 20260503230422 | 21 | 306 | 17.7 | 29.0 | 0.00 | 0.00 | 0.00 | 25 | 1003.8 |
| 20260503225920 | 21 | 293 | 19.3 | 32.2 | 0.00 | 0.00 | 0.00 | 26 | 1003.8 |
| 20260503225416 | 20 | 268 | 20.9 | 38.6 | 0.00 | 0.00 | 0.00 | 25 | 1003.8 |
| 20260503224912 | 21 | 291 | 17.7 | 38.6 | 0.00 | 0.00 | 0.00 | 25 | 1003.8 |
| 20260503224409 | 21 | 322 | 17.7 | 32.2 | 0.00 | 0.00 | 0.00 | 25 | 1003.8 |
| 20260503223907 | 21 | 324 | 19.3 | 32.2 | 0.00 | 0.00 | 0.00 | 25 | 1003.8 |
| 20260503223405 | 21 | 275 | 20.9 | 40.2 | 0.00 | 0.00 | 0.00 | 25 | 1003.8 |
| 20260503222859 | 21 | 302 | 24.1 | 40.2 | 0.00 | 0.00 | 0.00 | 27 | 1003.8 |
| 20260503222358 | 21 | 287 | 22.5 | 38.6 | 0.00 | 0.00 | 0.00 | 26 | 1003.8 |
| 20260503221856 | 21 | 296 | 22.5 | 38.6 | 0.00 | 0.00 | 0.00 | 26 | 1003.8 |
| 20260503221355 | 21 | 327 | 19.3 | 30.6 | 0.00 | 0.00 | 0.00 | 27 | 1003.8 |
| 20260503220850 | 21 | 321 | 16.1 | 25.7 | 0.00 | 0.00 | 0.00 | 26 | 1003.8 |
| 20260503220347 | 21 | 316 | 17.7 | 32.2 | 0.00 | 0.00 | 0.00 | 29 | 1003.4 |
| 20260503215844 | 21 | 288 | 22.5 | 37.0 | 0.00 | 0.00 | 0.00 | 30 | 1003.4 |
| 20260503215341 | 21 | 283 | 20.9 | 37.0 | 0.00 | 0.00 | 0.00 | 30 | 1003.4 |
| 20260503214839 | 21 | 341 | 19.3 | 33.8 | 0.00 | 0.00 | 0.00 | 31 | 1003.8 |
| 20260503214336 | 21 | 312 | 19.3 | 33.8 | 0.00 | 0.00 | 0.00 | 33 | 1003.4 |
| 20260503213833 | 21 | 274 | 17.7 | 27.4 | 0.00 | 0.00 | 0.00 | 34 | 1003.8 |
| 20260503213331 | 21 | 283 | 19.3 | 32.2 | 0.00 | 0.00 | 0.00 | 36 | 1003.4 |
| 20260503212827 | 21 | 292 | 20.9 | 32.2 | 0.00 | 0.00 | 0.00 | 36 | 1003.8 |
| 20260503212326 | 21 | 295 | 22.5 | 35.4 | 0.00 | 0.00 | 0.00 | 36 | 1003.8 |
| 20260503211823 | 21 | 288 | 19.3 | 35.4 | 0.00 | 0.00 | 0.00 | 35 | 1003.8 |
| 20260503211319 | 21 | 305 | 17.7 | 29.0 | 0.00 | 0.00 | 0.00 | 36 | 1003.4 |
| 20260503210819 | 21 | 269 | 19.3 | 32.2 | 0.00 | 0.00 | 0.00 | 38 | 1003.4 |
| 20260503210317 | 21 | 277 | 17.7 | 32.2 | 0.00 | 0.00 | 0.00 | 37 | 1003.8 |
| 20260503205812 | 21 | 332 | 17.7 | 33.8 | 0.00 | 0.00 | 0.00 | 36 | 1003.8 |
| 20260503205309 | 21 | 279 | 20.9 | 35.4 | 0.00 | 0.00 | 0.00 | 36 | 1003.8 |
| 20260503204805 | 21 | 291 | 19.3 | 35.4 | 0.00 | 0.00 | 0.00 | 34 | 1003.8 |
| 20260503204303 | 21 | 319 | 17.7 | 30.6 | 0.00 | 0.00 | 0.00 | 34 | 1003.8 |
| 20260503203800 | 21 | 331 | 19.3 | 41.8 | 0.00 | 0.00 | 0.00 | 35 | 1003.8 |
| 20260503203257 | 21 | 323 | 20.9 | 41.8 | 0.00 | 0.00 | 0.00 | 35 | 1003.8 |
| 20260503202754 | 21 | 324 | 20.9 | 37.0 | 0.00 | 0.00 | 0.00 | 38 | 1004.1 |
| 20260503202252 | 21 | 290 | 19.3 | 33.8 | 0.00 | 0.00 | 0.00 | 37 | 1004.1 |
| 20260503201750 | 21 | 288 | 20.9 | 33.8 | 0.00 | 0.00 | 0.00 | 37 | 1004.1 |
| 20260503201247 | 21 | 288 | 19.3 | 33.8 | 0.00 | 0.00 | 0.00 | 36 | 1004.1 |
| 20260503200744 | 21 | 297 | 19.3 | 30.6 | 0.00 | 0.00 | 0.00 | 37 | 1004.1 |
| 20260503200240 | 21 | 284 | 19.3 | 35.4 | 0.00 | 0.00 | 0.00 | 35 | 1004.5 |
| 20260503195737 | 21 | 321 | 16.1 | 35.4 | 0.00 | 0.00 | 0.00 | 36 | 1004.1 |
| 20260503195234 | 21 | 283 | 17.7 | 30.6 | 0.00 | 0.00 | 0.00 | 37 | 1004.1 |
| 20260503194732 | 21 | 321 | 19.3 | 32.2 | 0.00 | 0.00 | 0.00 | 36 | 1004.1 |
| 20260503194227 | 21 | 334 | 16.1 | 30.6 | 0.00 | 0.00 | 0.00 | 38 | 1004.1 |
| 20260503193723 | 21 | 271 | 19.3 | 38.6 | 0.00 | 0.00 | 0.00 | 37 | 1004.1 |
| 20260503193219 | 21 | 283 | 17.7 | 38.6 | 0.00 | 0.00 | 0.00 | 37 | 1004.1 |
| 20260503192715 | 21 | 301 | 14.5 | 25.7 | 0.00 | 0.00 | 0.00 | 38 | 1004.1 |
| 20260503192210 | 20 | 281 | 14.5 | 30.6 | 0.00 | 0.00 | 0.00 | 39 | 1004.1 |
| 20260503191708 | 20 | 296 | 16.1 | 32.2 | 0.00 | 0.00 | 0.00 | 39 | 1004.5 |
| 20260503191205 | 20 | 292 | 16.1 | 32.2 | 0.00 | 0.00 | 0.00 | 40 | 1004.5 |
| 20260503190701 | 20 | 320 | 16.1 | 30.6 | 0.00 | 0.00 | 0.00 | 42 | 1004.5 |
| 20260503190158 | 20 | 355 | 14.5 | 25.7 | 0.00 | 0.00 | 0.00 | 42 | 1004.5 |
| 20260503185655 | 20 | 316 | 14.5 | 25.7 | 0.00 | 0.00 | 0.00 | 42 | 1004.5 |
| 20260503185150 | 20 | 273 | 14.5 | 25.7 | 0.00 | 0.00 | 0.00 | 42 | 1004.5 |
| 20260503184645 | 20 | 286 | 16.1 | 25.7 | 0.00 | 0.00 | 0.00 | 42 | 1004.5 |
| 20260503184142 | 20 | 277 | 14.5 | 25.7 | 0.00 | 0.00 | 0.00 | 42 | 1004.5 |
| 20260503183638 | 20 | 259 | 11.3 | 25.7 | 0.00 | 0.00 | 0.00 | 43 | 1004.5 |
| 20260503183136 | 20 | 275 | 11.3 | 27.4 | 0.00 | 0.00 | 0.00 | 43 | 1004.8 |
| 20260503182634 | 20 | 280 | 14.5 | 27.4 | 0.00 | 0.00 | 0.00 | 43 | 1004.8 |
| 20260503182132 | 20 | 276 | 9.7 | 19.3 | 0.00 | 0.00 | 0.00 | 44 | 1004.8 |
| 20260503181629 | 19 | 319 | 11.3 | 22.5 | 0.00 | 0.00 | 0.00 | 44 | 1004.8 |
| 20260503181126 | 19 | 306 | 11.3 | 22.5 | 0.00 | 0.00 | 0.00 | 44 | 1005.1 |
| 20260503180622 | 19 | 321 | 9.7 | 22.5 | 0.00 | 0.00 | 0.00 | 45 | 1005.1 |
| 20260503180120 | 18 | 301 | 11.3 | 29.0 | 0.00 | 0.00 | 0.00 | 44 | 1005.1 |
| 20260503175617 | 18 | 319 | 12.9 | 29.0 | 0.00 | 0.00 | 0.00 | 44 | 1005.1 |
| 20260503175114 | 18 | 313 | 11.3 | 20.9 | 0.00 | 0.00 | 0.00 | 45 | 1005.1 |
| 20260503174611 | 18 | 286 | 11.3 | 24.1 | 0.00 | 0.00 | 0.00 | 44 | 1005.1 |
| 20260503174108 | 18 | 318 | 12.9 | 25.7 | 0.00 | 0.00 | 0.00 | 46 | 1005.1 |
| 20260503173603 | 18 | 296 | 12.9 | 25.7 | 0.00 | 0.00 | 0.00 | 45 | 1005.1 |
| 20260503173059 | 18 | 310 | 12.9 | 22.5 | 0.00 | 0.00 | 0.00 | 46 | 1005.1 |
| 20260503172556 | 18 | 278 | 12.9 | 24.1 | 0.00 | 0.00 | 0.00 | 45 | 1005.5 |
| 20260503172054 | 18 | 248 | 12.9 | 24.1 | 0.00 | 0.00 | 0.00 | 46 | 1005.5 |
| 20260503171550 | 17 | 315 | 16.1 | 27.4 | 0.00 | 0.00 | 0.00 | 46 | 1005.5 |
| 20260503171048 | 18 | 270 | 17.7 | 27.4 | 0.00 | 0.00 | 0.00 | 45 | 1005.5 |
| 20260503170544 | 18 | 285 | 12.9 | 25.7 | 0.00 | 0.00 | 0.00 | 46 | 1005.5 |
| 20260503150937 | 16 | 238 | 12.9 | 20.9 | 0.00 | 0.00 | 0.00 | 48 | 1005.5 |
| 20260503150433 | 16 | 273 | 12.9 | 22.5 | 0.00 | 0.00 | 0.00 | 47 | 1005.5 |
| 20260503131326 | 14 | 248 | 3.2 | 14.5 | 0.00 | 0.00 | 0.00 | 56 | 1005.8 |
| 20260503130824 | 13 | 242 | 3.2 | 11.3 | 0.00 | 0.00 | 0.00 | 57 | 1005.8 |
| 20260503130321 | 13 | 191 | 3.2 | 11.3 | 0.00 | 0.00 | 0.00 | 57 | 1005.8 |
| 20260503110714 | 10 | 155 | 4.8 | 9.7 | 0.00 | 0.00 | 0.00 | 70 | 1006.2 |
| 20260503110212 | 10 | 148 | 4.8 | 8.0 | 0.00 | 0.00 | 0.00 | 72 | 1006.2 |
| 20260503100138 | 10 | 153 | 3.2 | 9.7 | 0.00 | 0.00 | 0.00 | 67 | 1006.2 |
| 20260503081533 | 12 | 201 | 4.8 | 11.3 | 0.00 | 0.00 | 0.00 | 55 | 1007.3 |
| 20260503081030 | 12 | 190 | 4.8 | 11.3 | 0.00 | 0.00 | 0.00 | 54 | 1007.3 |
| 20260503080526 | 12 | 179 | 4.8 | 9.7 | 0.00 | 0.00 | 0.00 | 54 | 1007.6 |
| 20260503072500 | 12 | 192 | 4.8 | 12.9 | 0.00 | 0.00 | 0.00 | 55 | 1007.9 |
| 20260503071957 | 12 | 190 | 4.8 | 12.9 | 0.00 | 0.00 | 0.00 | 56 | 1007.9 |
| 20260503071454 | 12 | 198 | 4.8 | 11.3 | 0.00 | 0.00 | 0.00 | 57 | 1007.9 |
| 20260503070950 | 12 | 194 | 3.2 | 9.7 | 0.00 | 0.00 | 0.00 | 58 | 1007.9 |
| 20260503070447 | 12 | 190 | 3.2 | 6.4 | 0.00 | 0.00 | 0.00 | 59 | 1007.9 |
| 20260503054906 | 14 | 282 | 4.8 | 16.1 | 0.00 | 0.00 | 0.00 | 55 | 1009.6 |
| 20260503054402 | 13 | 132 | 3.2 | 8.0 | 0.00 | 0.00 | 0.00 | 56 | 1009.6 |
| 20260503053900 | 14 | 242 | 3.2 | 4.8 | 0.00 | 0.00 | 0.00 | 53 | 1009.6 |
| 20260503053358 | 14 | 241 | 3.2 | 6.4 | 0.00 | 0.00 | 0.00 | 52 | 1009.6 |
| 20260503052854 | 14 | 241 | 3.2 | 6.4 | 0.00 | 0.00 | 0.00 | 52 | 1009.6 |
| 20260503052351 | 14 | 240 | 3.2 | 6.4 | 0.00 | 0.00 | 0.00 | 51 | 1009.6 |
| 20260503051847 | 14 | 240 | 3.2 | 6.4 | 0.00 | 0.00 | 0.00 | 51 | 1009.6 |
| 20260503051344 | 14 | 242 | 3.2 | 11.3 | 0.00 | 0.00 | 0.00 | 51 | 1009.6 |
| 20260503050841 | 14 | 238 | 4.8 | 12.9 | 0.00 | 0.00 | 0.00 | 51 | 1009.6 |
| 20260503050337 | 14 | 246 | 4.8 | 12.9 | 0.00 | 0.00 | 0.00 | 51 | 1009.6 |
| 20260503045834 | 14 | 259 | 4.8 | 14.5 | 0.00 | 0.00 | 0.00 | 50 | 1009.6 |
| 20260503045332 | 14 | 242 | 4.8 | 14.5 | 0.00 | 0.00 | 0.00 | 50 | 1009.6 |
| 20260503044828 | 14 | 237 | 6.4 | 12.9 | 0.00 | 0.00 | 0.00 | 50 | 1009.6 |
| 20260503044325 | 15 | 252 | 6.4 | 14.5 | 0.00 | 0.00 | 0.00 | 50 | 1009.6 |
| 20260503043822 | 15 | 235 | 4.8 | 17.7 | 0.00 | 0.00 | 0.00 | 49 | 1010.1 |
| 20260503043319 | 14 | 235 | 6.4 | 17.7 | 0.00 | 0.00 | 0.00 | 49 | 1010.1 |
| 20260503042815 | 14 | 254 | 4.8 | 11.3 | 0.00 | 0.00 | 0.00 | 49 | 1010.1 |
| 20260503042312 | 14 | 212 | 3.2 | 8.0 | 0.00 | 0.00 | 0.00 | 49 | 1010.1 |
| 20260503041808 | 14 | 226 | 1.6 | 4.8 | 0.00 | 0.00 | 0.00 | 49 | 1010.1 |
| 20260503041306 | 14 | 225 | 1.6 | 8.0 | 0.00 | 0.00 | 0.00 | 49 | 1010.1 |
| 20260503040804 | 14 | 215 | 1.6 | 8.0 | 0.00 | 0.00 | 0.00 | 49 | 1010.1 |
| 20260503040301 | 14 | 200 | 3.2 | 8.0 | 0.00 | 0.00 | 0.00 | 48 | 1010.1 |
| 20260503035757 | 14 | 182 | 3.2 | 8.0 | 0.00 | 0.00 | 0.00 | 48 | 1010.4 |
| 20260503035255 | 14 | 239 | 3.2 | 8.0 | 0.00 | 0.00 | 0.00 | 48 | 1010.4 |
| 20260503034752 | 14 | 252 | 3.2 | 9.7 | 0.00 | 0.00 | 0.00 | 48 | 1010.4 |
| 20260503034249 | 13 | 244 | 3.2 | 9.7 | 0.00 | 0.00 | 0.00 | 49 | 1010.7 |
| 20260503033746 | 13 | 218 | 3.2 | 8.0 | 0.00 | 0.00 | 0.00 | 50 | 1010.7 |
| 20260503033244 | 13 | 232 | 1.6 | 4.8 | 0.00 | 0.00 | 0.00 | 51 | 1010.7 |
| 20260503032742 | 13 | 234 | 1.6 | 4.8 | 0.00 | 0.00 | 0.00 | 51 | 1010.7 |
| 20260503032240 | 13 | 234 | 1.6 | 6.4 | 0.00 | 0.00 | 0.00 | 50 | 1010.7 |
| 20260503031737 | 13 | 234 | 3.2 | 6.4 | 0.00 | 0.00 | 0.00 | 50 | 1010.7 |
| 20260503031235 | 13 | 232 | 1.6 | 6.4 | 0.00 | 0.00 | 0.00 | 50 | 1011.1 |
| 20260503030731 | 13 | 233 | 1.6 | 6.4 | 0.00 | 0.00 | 0.00 | 49 | 1011.1 |
| 20260503030228 | 13 | 233 | 1.6 | 6.4 | 0.00 | 0.00 | 0.00 | 49 | 1011.1 |
| 20260503025725 | 13 | 229 | 1.6 | 6.4 | 0.00 | 0.00 | 0.00 | 48 | 1011.1 |
| 20260503025222 | 13 | 234 | 1.6 | 6.4 | 0.00 | 0.00 | 0.00 | 48 | 1011.1 |
| 20260503024719 | 13 | 236 | 1.6 | 6.4 | 0.00 | 0.00 | 0.00 | 47 | 1011.1 |
| 20260503024216 | 13 | 217 | 0.0 | 4.8 | 0.00 | 0.00 | 0.00 | 47 | 1011.1 |
| 20260503023713 | 14 | 203 | 1.6 | 8.0 | 0.00 | 0.00 | 0.00 | 47 | 1011.1 |
| 20260503023209 | 14 | 202 | 1.6 | 8.0 | 0.00 | 0.00 | 0.00 | 47 | 1011.1 |
| 20260503022706 | 13 | 200 | 1.6 | 4.8 | 0.00 | 0.00 | 0.00 | 47 | 1011.1 |
| 20260503022205 | 13 | 210 | 0.0 | 4.8 | 0.00 | 0.00 | 0.00 | 47 | 1011.1 |
| 20260503021703 | 13 | 210 | 1.6 | 4.8 | 0.00 | 0.00 | 0.00 | 47 | 1011.1 |
| 20260503021159 | 13 | 209 | 0.0 | 4.8 | 0.00 | 0.00 | 0.00 | 46 | 1011.1 |
| 20260503020656 | 13 | 196 | 0.0 | 4.8 | 0.00 | 0.00 | 0.00 | 47 | 1011.1 |
| 20260503020154 | 14 | 196 | 1.6 | 4.8 | 0.00 | 0.00 | 0.00 | 46 | 1011.1 |
| 20260503015650 | 14 | 198 | 1.6 | 4.8 | 0.00 | 0.00 | 0.00 | 46 | 1011.1 |
| 20260503015147 | 14 | 198 | 3.2 | 8.0 | 0.00 | 0.00 | 0.00 | 46 | 1011.1 |
| 20260503014643 | 14 | 198 | 3.2 | 8.0 | 0.00 | 0.00 | 0.00 | 46 | 1011.1 |
| 20260503014141 | 14 | 196 | 3.2 | 6.4 | 0.00 | 0.00 | 0.00 | 45 | 1011.1 |
| 20260503013638 | 14 | 196 | 3.2 | 9.7 | 0.00 | 0.00 | 0.00 | 45 | 1011.1 |
| 20260503013136 | 14 | 177 | 1.6 | 9.7 | 0.00 | 0.00 | 0.00 | 45 | 1011.1 |